MDT,Max TemperatureF,Mean TemperatureF,Min TemperatureF,Max Dew PointF,MeanDew PointF,Min DewpointF,Max Humidity, Mean Humidity, Min Humidity, Max Sea Level PressureIn, Mean Sea Level PressureIn, Min Sea Level PressureIn, Max VisibilityMiles, Mean VisibilityMiles, Min VisibilityMiles, Max Wind SpeedMPH, Mean Wind SpeedMPH, Max Gust SpeedMPH,PrecipitationIn, CloudCover, Events, WindDirDegrees
2013-4-1,53,40,26,35,31,26,96,70,43,30.16,30.10,30.00,10,10,10,18,4,23,0.00,3,Rain-Thunderstorm,8
2013-4-2,40,38,36,38,35,33,97,90,76,30.13,30.09,30.06,10,8,2,10,4,,0.00,8,Rain-Thunderstorm,339
2013-4-3,60,48,37,39,35,26,99,71,28,30.14,30.10,30.04,10,9,5,7,2,,0.00,4,Rain,101
2013-4-4,69,52,34,37,30,23,92,48,18,30.17,30.09,29.99,10,10,10,10,4,,0.00,1,,151
2013-4-5,73,58,44,37,27,18,73,35,12,29.99,29.85,29.70,10,10,7,30,5,39,0.00,0,,201
2013-4-6,67,52,38,32,24,16,62,34,15,29.96,29.90,29.83,10,10,10,20,6,30,0.00,2,,193
2013-4-7,64,50,37,36,28,17,87,42,18,29.86,29.77,29.69,10,10,10,36,7,41,0.00,1,,250
2013-4-8,64,46,26,35,31,26,96,64,30,29.82,29.62,29.40,10,9,1,34,6,48,0.00,3,Snow-Thunderstorm,8
2013-4-9,25,19,12,25,15,10,96,84,73,30.18,30.05,29.84,10,5,1,21,14,25,0.00,8,Snow,35
2013-4-10,28,17,6,19,12,4,92,78,56,30.15,30.03,29.85,10,10,1,8,2,,0.00,3,Snow,127
2013-4-11,54,36,17,35,27,16,95,71,33,29.91,29.79,29.72,10,10,7,13,4,20,0.00,5,Rain,91
2013-4-12,59,44,30,35,31,24,94,67,26,29.98,29.92,29.86,10,10,10,26,6,37,0.00,5,,102
2013-4-13,66,46,27,38,29,16,99,62,15,29.95,29.62,29.40,10,10,5,17,3,25,0.00,1,Rain,355
2013-4-14,49,42,34,41,20,5,96,47,17,29.75,29.64,29.52,10,10,3,30,12,40,0.00,1,Rain,283
2013-4-15,38,32,23,29,25,15,99,80,39,30.01,29.79,29.73,10,5,0,14,7,20,0.00,8,Snow,25
2013-4-16,32,28,23,31,27,23,100,95,85,30.01,29.92,29.83,10,6,2,23,4,26,0.00,8,Snow,342
2013-4-17,31,26,20,31,26,18,100,93,80,30.14,29.98,29.91,10,4,0,22,12,30,0.00,8,Snow,21
2013-4-18,34,26,18,17,14,10,84,54,40,30.14,30.09,30.07,10,10,10,6,2,,0.00,1,,150
2013-4-19,53,38,22,32,19,14,74,48,26,30.10,30.01,29.94,10,10,10,13,4,16,0.00,0,,234
2013-4-20,57,44,31,36,31,25,95,62,32,30.01,29.93,29.90,10,10,10,14,4,,0.00,2,Rain,73
2013-4-21,62,47,32,36,29,14,99,56,15,30.07,30.02,29.96,10,10,10,15,4,22,0.00,1,,39
2013-4-22,49,36,23,38,30,23,97,88,65,30.30,30.09,29.89,10,6,0,23,6,32,0.00,5,Rain-Snow,38
2013-4-23,32,26,20,23,19,15,96,76,48,30.28,30.19,30.12,10,6,1,9,4,,0.00,4,Snow,105
2013-4-24,55,39,23,26,19,10,91,51,17,30.20,30.14,30.12,10,10,10,13,4,,0.00,1,,181
2013-4-25,66,46,27,35,24,14,91,51,14,30.16,30.03,29.90,10,10,10,13,1,,0.00,0,,83
2013-4-26,66,49,32,34,24,14,90,43,13,30.23,30.15,30.01,10,10,10,9,2,,0.00,0,,48
2013-4-27,73,53,33,33,23,10,85,39,10,30.23,30.13,30.03,10,10,10,12,2,,0.00,0,,221
2013-4-28,78,58,37,36,27,19,74,32,12,30.04,29.94,29.85,10,10,10,18,5,29,0.00,0,,288
2013-4-29,78,62,46,38,27,18,63,27,11,29.95,29.77,29.62,10,10,10,17,6,28,0.00,1,Rain,218
2013-4-30,66,52,37,39,33,19,97,54,16,30.04,29.81,29.64,10,10,5,22,7,36,0.00,3,Rain,82